Time;durP1;ratioP1;P1;durP2;ratioP2;P2;SDS_P1;SDS_P2;PMS_P1;PMS_P2;Temp;Humidity;BMP_temperature;BMP_pressure;BME280_temperature;BME280_humidity;BME280_pressure;Samples;Min_cycle;Max_cycle;Signal;HPM_P1;HPM_P2
2023/02/05 00:02:11;;;;;;;7.13;4.30;;;7.40;99.90;;;;;;5073487;28;20490;-45
2023/02/05 00:04:36;;;;;;;11.43;4.47;;;7.40;99.90;;;;;;5073564;28;20103;-44
2023/02/05 00:07:02;;;;;;;8.15;4.70;;;7.40;99.90;;;;;;5073302;28;20023;-43
2023/02/05 00:09:28;;;;;;;6.88;3.97;;;7.40;99.90;;;;;;5073354;28;20135;-44
2023/02/05 00:11:55;;;;;;;8.50;4.35;;;7.40;99.90;;;;;;5073372;28;20040;-42
2023/02/05 00:14:21;;;;;;;10.95;5.18;;;7.30;99.90;;;;;;5073512;28;20037;-44
2023/02/05 00:16:47;;;;;;;10.73;4.57;;;7.30;99.90;;;;;;5073097;28;20052;-44
2023/02/05 00:19:13;;;;;;;10.63;4.85;;;7.40;99.90;;;;;;5073193;28;20058;-44
2023/02/05 00:21:38;;;;;;;9.52;4.80;;;7.30;99.90;;;;;;5073059;28;20024;-42
2023/02/05 00:24:04;;;;;;;7.82;4.47;;;7.40;99.90;;;;;;5073076;28;20025;-42
2023/02/05 00:26:30;;;;;;;11.40;5.20;;;7.40;99.90;;;;;;5074121;28;20082;-36
2023/02/05 00:28:56;;;;;;;11.38;4.68;;;7.30;99.90;;;;;;5074994;28;20097;-38
2023/02/05 00:31:22;;;;;;;7.43;4.50;;;7.30;99.90;;;;;;5073255;28;20025;-36
2023/02/05 00:33:49;;;;;;;7.32;4.57;;;7.40;99.90;;;;;;5073967;28;20032;-41
2023/02/05 00:36:17;;;;;;;7.70;4.28;;;7.40;99.90;;;;;;5072590;28;20024;-44
2023/02/05 00:38:43;;;;;;;8.38;4.80;;;7.30;99.90;;;;;;5071422;28;20032;-40
2023/02/05 00:41:11;;;;;;;8.85;4.43;;;7.30;99.90;;;;;;5073298;28;20482;-38
2023/02/05 00:43:37;;;;;;;9.93;4.47;;;7.30;99.90;;;;;;5072984;28;20027;-35
2023/02/05 00:46:03;;;;;;;9.10;4.68;;;7.30;99.90;;;;;;5072434;28;20043;-39
2023/02/05 00:48:29;;;;;;;8.50;4.85;;;7.30;99.90;;;;;;5072939;28;20028;-43
2023/02/05 00:50:54;;;;;;;7.72;4.60;;;7.30;99.90;;;;;;5072682;28;20028;-43
2023/02/05 00:53:21;;;;;;;9.05;4.43;;;7.30;99.90;;;;;;5072556;28;20091;-45
2023/02/05 00:55:46;;;;;;;11.00;4.50;;;7.30;99.90;;;;;;5072126;28;20478;-35
2023/02/05 00:58:12;;;;;;;6.18;3.90;;;7.40;99.90;;;;;;5072294;28;20082;-38
2023/02/05 01:00:38;;;;;;;8.88;4.32;;;7.30;99.90;;;;;;5072354;28;20060;-36
2023/02/05 01:03:04;;;;;;;7.20;3.70;;;7.40;99.90;;;;;;5072291;28;20032;-37
2023/02/05 01:05:29;;;;;;;7.55;4.07;;;7.30;99.90;;;;;;5072314;28;20099;-43
2023/02/05 01:07:56;;;;;;;7.78;4.22;;;7.30;99.90;;;;;;5072183;28;20437;-40
2023/02/05 01:10:22;;;;;;;8.40;4.20;;;7.30;99.90;;;;;;5072178;28;20024;-42
2023/02/05 01:12:48;;;;;;;8.85;4.18;;;7.30;99.90;;;;;;5072196;28;20062;-35
2023/02/05 01:15:14;;;;;;;7.10;4.13;;;7.30;99.90;;;;;;5072062;28;20028;-35
2023/02/05 01:17:40;;;;;;;8.02;4.53;;;7.30;99.90;;;;;;5072245;28;20033;-40
2023/02/05 01:20:08;;;;;;;9.05;3.90;;;7.30;99.90;;;;;;5071826;28;20487;-42
2023/02/05 01:22:34;;;;;;;6.63;4.03;;;7.30;99.90;;;;;;5071942;28;20121;-33
2023/02/05 01:24:59;;;;;;;7.57;4.10;;;7.30;99.90;;;;;;5071935;28;20028;-35
2023/02/05 01:27:25;;;;;;;7.78;4.47;;;7.30;99.90;;;;;;5072169;28;20029;-35
2023/02/05 01:29:51;;;;;;;6.18;3.67;;;7.30;99.90;;;;;;5071830;28;20398;-38
2023/02/05 01:32:17;;;;;;;7.25;4.20;;;7.30;99.90;;;;;;5071699;28;20383;-41
2023/02/05 01:34:43;;;;;;;8.77;3.75;;;7.30;99.90;;;;;;5071677;28;20103;-37
2023/02/05 01:37:09;;;;;;;7.55;4.00;;;7.30;99.90;;;;;;5071922;28;20074;-37
2023/02/05 01:39:36;;;;;;;9.77;4.32;;;7.30;99.90;;;;;;5072298;28;20024;-39
2023/02/05 01:42:19;;;;;;;8.10;3.90;;;7.30;99.90;;;;;;5072087;28;20112;-38
2023/02/05 01:45:22;;;;;;;8.60;3.85;;;7.30;99.90;;;;;;5072088;28;20056;-37
2023/02/05 01:47:56;;;;;;;5.82;3.28;;;7.30;99.90;;;;;;5071235;28;20466;-33
2023/02/05 01:50:36;;;;;;;9.38;3.85;;;7.30;99.90;;;;;;5072858;28;20051;-38
2023/02/05 01:53:08;;;;;;;7.70;3.58;;;7.30;99.90;;;;;;5071422;28;20074;-38
2023/02/05 01:55:38;;;;;;;12.40;4.25;;;7.30;99.90;;;;;;5071916;28;20051;-33
2023/02/05 01:58:03;;;;;;;8.85;3.92;;;7.20;99.90;;;;;;5071191;28;20024;-38
2023/02/05 02:00:30;;;;;;;7.75;3.63;;;7.30;99.90;;;;;;5071331;28;20441;-37
2023/02/05 02:02:56;;;;;;;8.57;4.18;;;7.20;99.90;;;;;;5072469;28;20025;-41
2023/02/05 02:05:21;;;;;;;8.10;4.13;;;7.30;99.90;;;;;;5071484;28;20031;-39
2023/02/05 02:07:47;;;;;;;6.78;3.72;;;7.30;99.90;;;;;;5070475;28;20021;-36
2023/02/05 02:10:14;;;;;;;6.97;3.90;;;7.30;99.90;;;;;;5071448;28;20024;-32
2023/02/05 02:12:42;;;;;;;8.35;3.70;;;7.30;99.90;;;;;;5071309;28;20020;-35
2023/02/05 02:15:11;;;;;;;7.43;3.70;;;7.30;99.90;;;;;;5072417;28;20052;-34
2023/02/05 02:17:41;;;;;;;7.82;3.72;;;7.20;99.90;;;;;;5071126;28;20394;-39
2023/02/05 02:20:09;;;;;;;8.75;3.65;;;7.30;99.90;;;;;;5070996;28;20016;-34
2023/02/05 02:23:07;;;;;;;6.43;4.03;;;7.20;99.90;;;;;;5071228;28;20052;-43
2023/02/05 02:26:14;;;;;;;6.55;3.92;;;7.20;99.90;;;;;;5071147;28;20020;-40
2023/02/05 02:28:52;;;;;;;7.97;3.67;;;7.20;99.90;;;;;;5070666;28;20093;-44
2023/02/05 02:31:27;;;;;;;6.15;3.78;;;7.20;99.90;;;;;;5070990;28;20154;-44
2023/02/05 02:33:52;;;;;;;;;;;7.20;99.90;;;;;;5071591;28;20047;-44
2023/02/05 02:36:46;;;;;;;9.73;3.67;;;7.20;99.90;;;;;;5071115;28;20324;-44
2023/02/05 02:39:19;;;;;;;6.22;3.45;;;7.20;99.90;;;;;;5071438;28;20108;-43
2023/02/05 02:41:50;;;;;;;6.40;3.80;;;7.20;99.90;;;;;;5070990;28;20028;-40
2023/02/05 02:44:24;;;;;;;9.13;4.00;;;7.20;99.90;;;;;;5070968;28;20021;-44
2023/02/05 02:46:54;;;;;;;8.73;3.85;;;7.20;99.90;;;;;;5071158;28;20467;-42
2023/02/05 02:49:28;;;;;;;5.70;3.45;;;7.20;99.90;;;;;;5070749;28;20543;-42
2023/02/05 02:51:56;;;;;;;7.32;3.72;;;7.20;99.90;;;;;;5070977;28;20067;-43
2023/02/05 02:54:24;;;;;;;7.35;3.90;;;7.20;99.90;;;;;;5071276;28;20036;-43
2023/02/05 02:56:51;;;;;;;7.93;3.83;;;7.20;99.90;;;;;;5071948;28;20016;-43
2023/02/05 02:59:22;;;;;;;6.00;3.53;;;7.20;99.90;;;;;;5069412;28;20040;-37
2023/02/05 03:01:53;;;;;;;7.72;4.15;;;7.20;99.90;;;;;;5070657;28;20028;-38
2023/02/05 03:04:40;;;;;;;6.22;3.60;;;7.20;99.90;;;;;;5072947;28;20013;-36
2023/02/05 03:07:15;;;;;;;7.28;3.67;;;7.40;99.90;;;;;;5070557;28;20025;-38
2023/02/05 03:10:05;;;;;;;8.25;3.75;;;7.60;99.90;;;;;;5070725;28;20017;-42
2023/02/05 03:12:31;;;;;;;8.73;3.60;;;7.90;99.90;;;;;;5070043;28;20043;-35
2023/02/05 03:14:57;;;;;;;8.00;3.25;;;8.00;99.90;;;;;;5070658;28;20029;-38
2023/02/05 03:17:24;;;;;;;6.45;3.58;;;8.00;99.90;;;;;;5070431;28;20100;-42
2023/02/05 03:19:58;;;;;;;8.60;3.30;;;7.90;99.90;;;;;;5072565;28;20029;-44
2023/02/05 03:22:24;;;;;;;7.63;3.17;;;7.90;99.90;;;;;;5074343;28;20032;-44
2023/02/05 03:24:50;;;;;;;7.47;3.40;;;7.80;99.90;;;;;;5074734;28;20494;-44
2023/02/05 03:27:16;;;;;;;7.28;3.47;;;7.70;99.90;;;;;;5074043;28;20467;-44
2023/02/05 03:29:43;;;;;;;10.90;3.47;;;7.70;99.90;;;;;;5072980;28;20040;-36
2023/02/05 03:32:29;;;;;;;8.68;3.45;;;7.60;99.90;;;;;;5074371;28;20074;-37
2023/02/05 03:35:22;;;;;;;7.05;3.50;;;7.50;99.90;;;;;;5074555;28;20028;-39
2023/02/05 03:38:29;;;;;;;7.13;3.53;;;7.50;99.90;;;;;;5073840;28;20117;-36
2023/02/05 03:41:04;;;;;;;5.88;3.30;;;7.40;99.90;;;;;;5071355;28;20032;-35
2023/02/05 03:43:42;;;;;;;7.00;3.45;;;7.40;99.90;;;;;;5073556;28;20040;-38
2023/02/05 03:46:11;;;;;;;6.97;3.58;;;7.40;99.90;;;;;;5074414;28;20033;-36
2023/02/05 03:49:03;;;;;;;7.57;3.40;;;7.40;99.90;;;;;;5073859;28;20024;-33
2023/02/05 03:51:50;;;;;;;8.68;3.83;;;7.30;99.90;;;;;;5073831;28;20028;-40
2023/02/05 03:54:50;;;;;;;7.32;3.47;;;7.30;99.90;;;;;;5073738;28;20021;-38
2023/02/05 03:57:42;;;;;;;6.30;3.65;;;7.30;99.90;;;;;;5073603;28;20484;-36
2023/02/05 04:00:09;;;;;;;7.35;3.40;;;7.20;99.90;;;;;;5073289;28;20093;-37
2023/02/05 04:02:35;;;;;;;5.80;3.30;;;7.20;99.90;;;;;;5073865;28;20060;-44
2023/02/05 04:05:01;;;;;;;8.57;4.00;;;7.30;99.90;;;;;;5073556;28;20580;-44
2023/02/05 04:07:27;;;;;;;6.03;3.47;;;7.50;99.90;;;;;;5074006;28;20048;-43
2023/02/05 04:09:52;;;;;;;6.35;3.22;;;7.70;99.90;;;;;;5072048;28;20383;-42
2023/02/05 04:12:18;;;;;;;8.85;3.70;;;7.80;99.90;;;;;;5073425;28;20035;-44
2023/02/05 04:14:43;;;;;;;6.78;3.55;;;7.90;99.90;;;;;;5073190;28;20108;-44
2023/02/05 04:17:11;;;;;;;9.15;3.88;;;7.90;99.90;;;;;;5073114;28;20047;-43
2023/02/05 04:19:37;;;;;;;9.18;3.80;;;7.80;99.90;;;;;;5073341;28;20433;-40
2023/02/05 04:22:02;;;;;;;8.15;3.90;;;7.70;99.90;;;;;;5073126;28;20502;-44
2023/02/05 04:24:28;;;;;;;8.68;3.95;;;7.70;99.90;;;;;;5073133;28;20020;-44
2023/02/05 04:26:54;;;;;;;8.27;3.88;;;7.60;99.90;;;;;;5072908;28;20024;-35
2023/02/05 04:29:20;;;;;;;8.98;4.25;;;7.50;99.90;;;;;;5072829;28;20021;-35
2023/02/05 04:31:46;;;;;;;8.30;3.78;;;7.50;99.90;;;;;;5072499;28;20357;-36
2023/02/05 04:34:11;;;;;;;5.47;3.42;;;7.40;99.90;;;;;;5072977;28;20070;-38
2023/02/05 04:36:37;;;;;;;7.68;3.90;;;7.40;99.90;;;;;;5072725;28;20462;-44
2023/02/05 04:39:03;;;;;;;7.63;4.18;;;7.30;99.90;;;;;;5073241;28;20416;-44
2023/02/05 04:41:28;;;;;;;7.55;4.00;;;7.30;99.90;;;;;;5072811;28;20039;-44
2023/02/05 04:43:54;;;;;;;9.07;4.22;;;7.30;99.90;;;;;;5073845;28;20103;-43
2023/02/05 04:46:19;;;;;;;8.10;3.95;;;7.30;99.90;;;;;;5072585;28;20035;-41
2023/02/05 04:48:45;;;;;;;6.43;3.88;;;7.20;99.90;;;;;;5071463;28;20111;-44
2023/02/05 04:51:12;;;;;;;8.98;3.50;;;7.20;99.90;;;;;;5072677;28;20050;-44
2023/02/05 04:53:39;;;;;;;8.07;3.80;;;7.20;99.90;;;;;;5074025;28;20151;-42
2023/02/05 04:56:11;;;;;;;5.82;3.45;;;7.20;99.90;;;;;;5072535;28;20020;-40
2023/02/05 04:58:37;;;;;;;8.00;3.75;;;7.20;99.90;;;;;;5072116;28;20421;-44
2023/02/05 05:01:03;;;;;;;6.60;3.75;;;7.20;99.90;;;;;;5072319;28;20099;-42
2023/02/05 05:03:29;;;;;;;8.23;3.63;;;7.20;99.90;;;;;;5072381;28;20162;-41
2023/02/05 05:05:55;;;;;;;7.55;3.88;;;7.30;99.90;;;;;;5073648;28;20031;-40
2023/02/05 05:08:20;;;;;;;7.63;3.65;;;7.50;99.90;;;;;;5072453;28;20017;-44
2023/02/05 05:10:46;;;;;;;7.90;3.40;;;7.70;99.90;;;;;;5070845;28;20379;-43
2023/02/05 05:13:12;;;;;;;8.15;3.72;;;7.80;99.90;;;;;;5072019;28;20025;-44
2023/02/05 05:15:37;;;;;;;6.97;3.70;;;7.80;99.90;;;;;;5072111;28;20386;-44
2023/02/05 05:18:03;;;;;;;7.07;3.42;;;7.80;99.90;;;;;;5071936;28;20040;-40
2023/02/05 05:20:29;;;;;;;7.35;4.00;;;7.70;99.90;;;;;;5071898;28;20047;-41
2023/02/05 05:22:55;;;;;;;7.28;3.70;;;7.70;99.90;;;;;;5072436;28;20035;-44
2023/02/05 05:25:21;;;;;;;5.95;3.22;;;7.60;99.90;;;;;;5071927;28;20059;-44
2023/02/05 05:27:47;;;;;;;7.68;3.70;;;7.50;99.90;;;;;;5072953;28;20024;-44
2023/02/05 05:30:13;;;;;;;9.63;4.07;;;7.50;99.90;;;;;;5073727;28;20028;-44
2023/02/05 05:32:39;;;;;;;10.77;4.30;;;7.40;99.90;;;;;;5072090;28;20375;-42
2023/02/05 05:35:05;;;;;;;6.30;4.13;;;7.40;99.90;;;;;;5072614;28;20027;-44
2023/02/05 05:37:31;;;;;;;9.63;3.95;;;7.40;99.90;;;;;;5072381;28;20055;-44
2023/02/05 05:45:25;;;;;;;6.68;3.33;;;7.20;99.90;;;;;;5071681;28;20107;-43
2023/02/05 05:47:50;;;;;;;6.35;3.53;;;7.20;99.90;;;;;;5071444;28;20470;-44
2023/02/05 05:50:16;;;;;;;6.53;3.75;;;7.20;99.90;;;;;;5071462;28;20557;-43
2023/02/05 05:52:42;;;;;;;9.18;3.92;;;7.20;99.90;;;;;;5071371;28;20028;-44
2023/02/05 05:55:08;;;;;;;6.47;3.42;;;7.20;99.90;;;;;;5071503;28;20020;-44
2023/02/05 05:57:33;;;;;;;7.43;3.83;;;7.20;99.90;;;;;;5071207;28;20021;-43
2023/02/05 05:59:59;;;;;;;7.43;3.53;;;7.20;99.90;;;;;;5071288;28;20043;-44
2023/02/05 06:02:24;;;;;;;5.55;3.50;;;7.20;99.90;;;;;;5071603;28;20036;-43
2023/02/05 06:04:50;;;;;;;5.50;3.25;;;7.20;99.90;;;;;;5070373;28;20177;-44
2023/02/05 06:07:16;;;;;;;8.05;3.80;;;7.30;99.90;;;;;;5070992;28;20390;-41
2023/02/05 06:09:41;;;;;;;8.13;4.07;;;7.60;99.90;;;;;;5069917;28;20053;-44
2023/02/05 06:12:07;;;;;;;9.45;3.40;;;7.70;99.90;;;;;;5071213;28;20032;-41
2023/02/05 06:14:32;;;;;;;5.28;3.42;;;7.80;99.90;;;;;;5071548;28;20036;-44
2023/02/05 06:16:58;;;;;;;6.38;3.38;;;7.80;99.90;;;;;;5070989;28;20032;-44
2023/02/05 06:19:24;;;;;;;6.72;3.50;;;7.80;99.90;;;;;;5071229;28;20039;-44
2023/02/05 06:21:49;;;;;;;7.55;3.50;;;7.70;99.90;;;;;;5071482;28;20029;-43
2023/02/05 06:24:15;;;;;;;7.65;4.05;;;7.60;99.90;;;;;;5071312;28;20052;-44
2023/02/05 06:26:40;;;;;;;9.80;3.80;;;7.60;99.90;;;;;;5073395;28;20100;-44
2023/02/05 06:29:06;;;;;;;9.20;3.72;;;7.50;99.90;;;;;;5071070;28;20028;-44
2023/02/05 06:31:32;;;;;;;8.27;3.60;;;7.40;99.90;;;;;;5071178;28;20044;-37
2023/02/05 06:33:57;;;;;;;6.00;3.70;;;7.40;99.90;;;;;;5071135;28;20484;-38
2023/02/05 06:36:23;;;;;;;8.13;4.00;;;7.30;99.90;;;;;;5070791;28;20090;-33
2023/02/05 06:38:49;;;;;;;7.40;3.80;;;7.30;99.90;;;;;;5071270;28;20115;-33
2023/02/05 06:41:14;;;;;;;6.88;3.55;;;7.30;99.90;;;;;;5071035;28;20543;-35
2023/02/05 06:43:40;;;;;;;7.88;3.60;;;7.30;99.90;;;;;;5071024;28;20055;-38
2023/02/05 06:46:06;;;;;;;9.43;3.80;;;7.20;99.90;;;;;;5070793;28;20099;-35
2023/02/05 06:48:31;;;;;;;6.75;3.75;;;7.20;99.90;;;;;;5070943;28;20078;-34
2023/02/05 06:50:57;;;;;;;8.35;4.00;;;7.20;99.90;;;;;;5071153;28;20029;-35
2023/02/05 06:53:22;;;;;;;6.50;3.40;;;7.20;99.90;;;;;;5070923;28;20346;-39
2023/02/05 06:55:48;;;;;;;7.10;3.92;;;7.20;99.90;;;;;;5074616;28;20491;-37
2023/02/05 06:58:14;;;;;;;6.28;3.40;;;7.10;99.90;;;;;;5075030;28;20075;-39
2023/02/05 07:00:39;;;;;;;7.65;3.90;;;7.10;99.90;;;;;;5074622;28;20036;-36
2023/02/05 07:03:05;;;;;;;11.20;4.10;;;7.10;99.90;;;;;;5074742;28;20012;-35
2023/02/05 07:05:32;;;;;;;8.05;4.30;;;7.20;99.90;;;;;;5074616;28;20083;-34
2023/02/05 07:07:58;;;;;;;6.63;4.00;;;7.40;99.90;;;;;;5074471;28;20029;-33
2023/02/05 07:10:24;;;;;;;7.68;3.78;;;7.60;99.90;;;;;;5074464;28;20383;-38
2023/02/05 07:12:50;;;;;;;7.65;4.00;;;7.80;99.90;;;;;;5074517;28;20027;-37
2023/02/05 07:15:15;;;;;;;7.15;3.50;;;7.80;99.90;;;;;;5074478;28;20487;-42
2023/02/05 07:17:41;;;;;;;6.03;3.65;;;7.70;99.90;;;;;;5074240;28;20020;-37
2023/02/05 07:20:07;;;;;;;4.63;3.17;;;7.70;99.90;;;;;;5074248;28;20031;-35
2023/02/05 07:22:33;;;;;;;7.30;3.95;;;7.60;99.90;;;;;;5074573;28;20027;-40
2023/02/05 07:24:59;;;;;;;6.97;3.78;;;7.60;99.90;;;;;;5074263;28;20453;-44
2023/02/05 07:27:25;;;;;;;5.88;3.28;;;7.60;99.90;;;;;;5074101;28;20126;-44
2023/02/05 07:29:51;;;;;;;7.32;3.60;;;7.50;99.90;;;;;;5074432;28;20051;-43
2023/02/05 07:32:16;;;;;;;9.23;3.88;;;7.40;99.90;;;;;;5076993;28;20033;-44
2023/02/05 07:34:42;;;;;;;6.78;3.40;;;7.40;99.90;;;;;;5074322;28;20027;-42
2023/02/05 07:37:10;;;;;;;6.60;3.25;;;7.30;99.90;;;;;;5073859;28;20028;-37
2023/02/05 07:39:36;;;;;;;5.28;3.50;;;7.30;99.90;;;;;;5073871;28;20086;-37
2023/02/05 07:42:02;;;;;;;6.75;3.65;;;7.30;99.90;;;;;;5073935;28;20043;-37
2023/02/05 07:44:27;;;;;;;5.00;3.78;;;7.30;99.90;;;;;;5074028;28;20029;-37
2023/02/05 07:46:53;;;;;;;6.82;3.58;;;7.20;99.90;;;;;;5073665;28;20382;-36
2023/02/05 07:49:18;;;;;;;6.88;4.22;;;7.20;99.90;;;;;;5073692;28;20049;-38
2023/02/05 07:51:44;;;;;;;6.57;4.03;;;7.20;99.90;;;;;;5073850;28;20017;-34
2023/02/05 07:54:11;;;;;;;6.53;4.07;;;7.20;99.90;;;;;;5073827;28;20440;-36
2023/02/05 07:56:37;;;;;;;6.10;3.50;;;7.10;99.90;;;;;;5073520;28;20111;-39
2023/02/05 07:59:03;;;;;;;6.22;3.65;;;7.10;99.90;;;;;;5073822;28;20114;-36
2023/02/05 08:01:29;;;;;;;7.07;4.10;;;7.10;99.90;;;;;;5074503;28;20025;-34
2023/02/05 08:03:55;;;;;;;5.93;3.50;;;7.10;99.90;;;;;;5073680;28;20070;-33
2023/02/05 08:06:23;;;;;;;6.25;3.60;;;7.10;99.90;;;;;;5072744;28;20382;-36
2023/02/05 08:08:49;;;;;;;6.47;3.83;;;7.10;99.90;;;;;;5073829;28;20021;-37
2023/02/05 08:11:16;;;;;;;6.95;3.60;;;7.10;99.90;;;;;;5073718;28;20101;-34
2023/02/05 08:13:43;;;;;;;6.85;3.80;;;7.00;99.90;;;;;;5072560;28;20398;-35
2023/02/05 08:16:11;;;;;;;5.78;3.42;;;7.00;99.90;;;;;;5073454;28;20540;-33
2023/02/05 08:18:37;;;;;;;5.28;3.22;;;7.10;99.90;;;;;;5073239;28;20039;-33
2023/02/05 08:21:02;;;;;;;7.97;4.00;;;7.10;99.90;;;;;;5073437;28;20033;-37
2023/02/05 08:23:29;;;;;;;6.65;3.63;;;7.00;99.90;;;;;;5073460;28;20035;-38
2023/02/05 08:25:56;;;;;;;6.00;3.80;;;7.00;99.90;;;;;;5071723;28;20112;-37
2023/02/05 08:28:24;;;;;;;6.85;3.78;;;7.00;99.90;;;;;;5073223;28;20529;-32
2023/02/05 08:30:51;;;;;;;7.28;4.00;;;7.10;99.90;;;;;;5072045;28;20025;-37
2023/02/05 08:33:17;;;;;;;5.80;3.72;;;7.00;99.90;;;;;;5073195;28;20033;-37
2023/02/05 08:35:42;;;;;;;8.65;3.80;;;7.00;99.90;;;;;;5073089;28;20025;-38
2023/02/05 08:38:08;;;;;;;6.22;3.53;;;7.00;99.90;;;;;;5073135;28;20052;-37
2023/02/05 08:40:34;;;;;;;8.13;3.70;;;7.00;99.90;;;;;;5072995;28;20444;-44
2023/02/05 08:43:01;;;;;;;7.30;3.60;;;7.00;99.90;;;;;;5072857;28;20032;-44
2023/02/05 08:45:27;;;;;;;7.45;3.42;;;7.00;99.90;;;;;;5073082;28;20020;-43
2023/02/05 08:47:54;;;;;;;5.22;3.45;;;7.00;99.90;;;;;;5072569;28;20036;-44
2023/02/05 08:50:20;;;;;;;6.45;3.60;;;7.00;99.90;;;;;;5073158;28;20150;-44
2023/02/05 08:52:46;;;;;;;5.72;3.20;;;7.00;99.90;;;;;;5073818;28;20024;-44
2023/02/05 08:55:12;;;;;;;6.80;3.63;;;7.00;99.90;;;;;;5073609;28;20023;-43
2023/02/05 08:57:37;;;;;;;7.50;3.95;;;7.00;99.90;;;;;;5073234;28;20493;-43
2023/02/05 09:00:04;;;;;;;6.75;3.20;;;7.00;99.90;;;;;;5072936;28;20537;-39
2023/02/05 09:02:30;;;;;;;7.25;3.03;;;7.00;99.90;;;;;;5072269;28;20036;-43
2023/02/05 09:04:55;;;;;;;8.38;4.05;;;7.00;99.90;;;;;;5072412;28;20020;-41
2023/02/05 09:07:21;;;;;;;5.68;3.45;;;7.00;99.90;;;;;;5072131;28;20025;-44
2023/02/05 09:09:47;;;;;;;7.35;3.15;;;7.00;99.90;;;;;;5072238;28;20089;-44
2023/02/05 09:12:13;;;;;;;6.78;3.45;;;7.00;99.90;;;;;;5072276;28;20024;-44
2023/02/05 09:14:40;;;;;;;7.20;3.92;;;7.00;99.90;;;;;;5072162;28;20445;-44
2023/02/05 09:17:07;;;;;;;6.03;3.13;;;7.00;99.90;;;;;;5071777;28;20496;-44
2023/02/05 09:19:35;;;;;;;7.28;3.92;;;7.10;99.90;;;;;;5072206;28;20052;-44
2023/02/05 09:22:01;;;;;;;6.88;3.47;;;7.00;99.90;;;;;;5071883;28;20024;-44
2023/02/05 09:24:27;;;;;;;8.10;3.50;;;7.00;99.90;;;;;;5071973;28;20371;-44
2023/02/05 09:26:53;;;;;;;8.52;3.45;;;7.10;99.90;;;;;;5071761;28;20024;-43
2023/02/05 09:29:18;;;;;;;8.18;4.20;;;7.00;99.90;;;;;;5071665;28;20535;-40
2023/02/05 09:31:44;;;;;;;6.75;3.53;;;7.10;99.90;;;;;;5073779;28;20021;-36
2023/02/05 09:34:09;;;;;;;6.50;3.60;;;7.00;99.90;;;;;;5071838;28;20581;-36
2023/02/05 09:36:35;;;;;;;6.30;3.28;;;7.00;99.90;;;;;;5070186;28;20025;-36
2023/02/05 09:39:01;;;;;;;7.45;3.92;;;7.00;99.90;;;;;;5071631;28;20024;-37
2023/02/05 09:42:15;;;;;;;6.80;3.78;;;7.00;99.90;;;;;;5071667;28;20024;-37
2023/02/05 09:45:15;;;;;;;6.00;3.72;;;7.00;99.90;;;;;;5069208;28;20410;-36
2023/02/05 09:48:07;;;;;;;9.80;3.63;;;7.00;99.90;;;;;;5068914;28;20024;-35
2023/02/05 09:50:33;;;;;;;7.47;3.85;;;7.00;99.90;;;;;;5061781;28;20502;-34
2023/02/05 09:53:02;;;;;;;8.15;4.10;;;7.00;99.90;;;;;;5072969;28;20054;-36
2023/02/05 09:55:31;;;;;;;8.02;4.47;;;7.00;99.90;;;;;;5071897;28;20073;-34
2023/02/05 09:58:05;;;;;;;7.57;3.83;;;7.00;99.90;;;;;;5072204;28;20085;-44
2023/02/05 10:00:44;;;;;;;5.45;3.58;;;7.00;99.90;;;;;;5071720;28;20023;-44
2023/02/05 10:03:31;;;;;;;5.95;3.70;;;7.00;99.90;;;;;;5070085;28;20506;-43
2023/02/05 10:06:07;;;;;;;4.85;3.10;;;7.00;99.90;;;;;;5071310;28;20031;-44
2023/02/05 10:09:06;;;;;;;6.32;3.97;;;7.00;99.90;;;;;;5071496;28;20020;-43
2023/02/05 10:12:02;;;;;;;7.82;4.35;;;7.00;99.90;;;;;;5070148;28;20298;-44
2023/02/05 10:14:46;;;;;;;6.35;3.50;;;7.00;99.90;;;;;;5071367;28;20035;-40
2023/02/05 10:17:33;;;;;;;7.05;3.80;;;7.00;99.90;;;;;;5070992;28;20048;-38
2023/02/05 10:20:24;;;;;;;7.63;4.03;;;7.00;99.90;;;;;;5071590;28;20059;-37
2023/02/05 10:23:15;;;;;;;7.25;3.95;;;7.00;99.90;;;;;;5071211;28;20490;-34
2023/02/05 10:26:14;;;;;;;6.18;3.92;;;7.00;99.90;;;;;;5071003;28;20027;-37
2023/02/05 10:29:18;;;;;;;6.10;3.75;;;7.00;99.90;;;;;;5073150;28;20032;-36
2023/02/05 10:32:06;;;;;;;7.30;4.15;;;7.00;99.90;;;;;;5076231;28;20060;-33
2023/02/05 10:35:04;;;;;;;6.60;4.10;;;7.00;99.90;;;;;;5077798;28;20032;-36
2023/02/05 10:37:42;;;;;;;6.28;3.70;;;7.00;99.90;;;;;;5077559;28;20036;-36
2023/02/05 10:40:18;;;;;;;6.60;3.60;;;7.00;99.90;;;;;;5077604;28;20056;-42
2023/02/05 10:43:25;;;;;;;5.85;3.65;;;7.00;99.90;;;;;;5078337;28;20024;-42
2023/02/05 10:45:52;;;;;;;8.63;3.83;;;7.00;99.90;;;;;;5077606;28;20020;-44
2023/02/05 10:48:42;;;;;;;6.30;3.70;;;7.00;99.90;;;;;;5077575;28;20017;-43
2023/02/05 10:51:16;;;;;;;5.38;3.67;;;7.00;99.90;;;;;;5077614;28;20032;-43
2023/02/05 10:53:42;;;;;;;8.48;4.10;;;7.00;99.90;;;;;;5077640;28;20025;-42
2023/02/05 10:56:15;;;;;;;6.70;3.65;;;7.00;99.90;;;;;;5077386;28;20082;-40
2023/02/05 10:58:47;;;;;;;9.07;4.20;;;7.00;99.90;;;;;;5077546;28;20044;-43
2023/02/05 11:01:21;;;;;;;7.38;3.90;;;7.00;99.90;;;;;;5077395;28;20083;-44
2023/02/05 11:03:51;;;;;;;6.38;3.38;;;7.00;99.90;;;;;;5077655;28;20096;-43
2023/02/05 11:06:19;;;;;;;6.28;3.80;;;7.00;99.90;;;;;;5077401;28;20391;-43
2023/02/05 11:08:46;;;;;;;5.55;3.80;;;7.00;99.90;;;;;;5077508;28;20020;-44
2023/02/05 11:11:27;;;;;;;5.97;3.60;;;7.10;99.90;;;;;;5077438;28;20032;-44
2023/02/05 11:13:59;;;;;;;7.40;3.47;;;7.00;99.90;;;;;;5077436;28;20031;-43
2023/02/05 11:16:54;;;;;;;7.57;3.65;;;7.00;99.90;;;;;;5077206;28;20482;-43
2023/02/05 11:19:21;;;;;;;;;;;7.00;99.90;;;;;;5077091;28;20541;-44
2023/02/05 11:21:53;;;;;;;6.28;3.85;;;7.00;99.90;;;;;;5077623;28;19999;-38
2023/02/05 11:24:29;;;;;;;6.28;3.47;;;7.00;99.90;;;;;;5077428;28;20017;-41
2023/02/05 11:27:26;;;;;;;7.38;3.75;;;7.00;99.90;;;;;;5077181;28;20028;-37
2023/02/05 11:29:54;;;;;;;6.63;3.30;;;7.00;99.90;;;;;;5077296;28;20090;-36
2023/02/05 11:32:36;;;;;;;7.75;3.67;;;7.00;99.90;;;;;;5077128;28;20052;-36
2023/02/05 11:35:21;;;;;;;5.82;3.75;;;7.00;99.90;;;;;;5077946;28;20052;-34
2023/02/05 11:37:58;;;;;;;4.35;3.10;;;7.00;99.90;;;;;;5077121;28;20024;-33
2023/02/05 11:40:29;;;;;;;7.40;4.25;;;7.00;99.90;;;;;;5075576;28;20036;-38
2023/02/05 11:43:29;;;;;;;6.88;3.40;;;7.10;99.90;;;;;;5074045;28;20024;-38
2023/02/05 11:45:56;;;;;;;7.07;3.17;;;7.00;99.90;;;;;;5073315;28;20037;-35
2023/02/05 11:48:32;;;;;;;6.32;3.60;;;7.10;99.90;;;;;;5074257;28;20430;-38
2023/02/05 11:50:59;;;;;;;6.88;3.90;;;7.00;99.90;;;;;;5073899;28;20150;-44
2023/02/05 11:53:25;;;;;;;6.05;3.53;;;7.00;99.90;;;;;;5073823;28;20464;-42
2023/02/05 11:56:05;;;;;;;6.75;3.38;;;7.00;99.90;;;;;;5073585;28;20096;-43
2023/02/05 11:58:31;;;;;;;8.65;3.70;;;7.00;99.90;;;;;;5073819;28;20078;-43
2023/02/05 12:01:03;;;;;;;8.48;3.67;;;7.10;99.90;;;;;;5073519;28;20091;-36
2023/02/05 12:03:31;;;;;;;4.53;3.20;;;7.10;99.90;;;;;;5073738;28;20055;-37
2023/02/05 12:06:10;;;;;;;7.28;3.45;;;7.00;99.90;;;;;;5073913;28;20487;-36
2023/02/05 12:08:45;;;;;;;6.13;3.20;;;7.00;99.90;;;;;;5073620;28;20020;-40
2023/02/05 12:11:59;;;;;;;6.95;3.20;;;7.10;99.90;;;;;;5073541;28;20104;-35
2023/02/05 12:14:37;;;;;;;5.45;3.03;;;7.00;99.90;;;;;;5073354;28;20052;-44
2023/02/05 12:17:40;;;;;;;5.20;2.88;;;7.10;99.90;;;;;;5073211;28;20020;-37
2023/02/05 12:20:20;;;;;;;5.15;3.22;;;7.00;99.90;;;;;;5073242;28;20120;-38
2023/02/05 12:23:06;;;;;;;6.22;3.47;;;7.00;99.90;;;;;;5073339;28;20021;-35
2023/02/05 12:26:04;;;;;;;6.55;3.42;;;7.10;99.90;;;;;;5073293;28;20021;-35
2023/02/05 12:28:51;;;;;;;4.80;3.15;;;7.00;99.90;;;;;;5071872;28;20021;-34
2023/02/05 12:31:35;;;;;;;5.07;3.15;;;7.10;99.90;;;;;;5073137;28;20025;-38
2023/02/05 12:34:16;;;;;;;7.15;3.45;;;7.00;99.90;;;;;;5073103;28;20386;-37
2023/02/05 12:36:51;;;;;;;5.68;3.45;;;7.00;99.90;;;;;;5072748;28;20555;-44
2023/02/05 12:39:19;;;;;;;4.68;3.03;;;7.00;99.90;;;;;;5072920;28;20387;-44
2023/02/05 12:42:05;;;;;;;6.28;3.33;;;7.00;99.90;;;;;;5072595;28;20086;-35
2023/02/05 12:44:37;;;;;;;5.30;3.10;;;7.00;99.90;;;;;;5074327;28;20017;-35
2023/02/05 12:47:09;;;;;;;5.63;2.72;;;7.00;99.90;;;;;;5072590;28;20021;-40
2023/02/05 12:49:40;;;;;;;5.53;3.58;;;7.00;99.90;;;;;;5073329;28;20476;-40
2023/02/05 12:52:19;;;;;;;4.60;3.10;;;7.00;99.90;;;;;;5072658;28;20028;-39
2023/02/05 12:55:22;;;;;;;4.22;3.22;;;7.00;99.90;;;;;;5072595;28;20082;-44
2023/02/05 12:58:00;;;;;;;6.80;3.42;;;7.00;99.90;;;;;;5072507;28;20016;-44
2023/02/05 13:00:36;;;;;;;4.65;3.22;;;7.00;99.90;;;;;;5072514;28;20127;-44
2023/02/05 13:03:25;;;;;;;5.70;3.13;;;7.00;99.90;;;;;;5072376;28;20021;-44
2023/02/05 13:05:57;;;;;;;5.97;3.63;;;7.00;99.90;;;;;;5072073;28;20107;-44
2023/02/05 13:08:44;;;;;;;6.20;3.10;;;7.00;99.90;;;;;;5072327;28;20025;-44
2023/02/05 13:11:23;;;;;;;5.53;3.63;;;7.00;99.90;;;;;;5071274;28;20036;-44
2023/02/05 13:14:02;;;;;;;4.38;3.17;;;7.00;99.90;;;;;;5072339;28;20455;-37
2023/02/05 13:16:48;;;;;;;4.45;3.10;;;7.00;99.90;;;;;;5072039;28;20066;-34
2023/02/05 13:19:28;;;;;;;5.68;3.05;;;7.00;99.90;;;;;;5072485;28;20442;-34
2023/02/05 13:30:42;;;;;;;5.50;3.10;;;7.00;99.90;;;;;;5071913;28;20070;-44
2023/02/05 13:33:08;;;;;;;4.45;3.03;;;7.00;99.90;;;;;;5071913;28;20051;-42
2023/02/05 13:35:42;;;;;;;4.95;3.00;;;7.00;99.90;;;;;;5071731;28;20052;-42